Terminal Aerodrome Forecast
Issued by NWS

Home | Current Version | Previous Version | Text Only | Print | Product List | Glossary On
Versions: 1 2 3 4 5 6 7 8 9 10 11 12 13 14
469
FTUS46 KSEW 200520
TAFCLM
TAF
KCLM 200520Z 2006/2106 00000KT P6SM VCSH BKN050 BKN080 OVC090
     FM200800 27005KT P6SM VCSH SCT050 BKN070
     FM201700 29012KT P6SM SCT050 BKN200
     FM210100 22004KT P6SM SCT050 BKN100=

USA.gov is the U.S. government's official web portal to all federal, state and local government web resources and services.